sensor_id;sensor_type;location;lat;lon;timestamp;pressure;altitude;pressure_sealevel;temperature;humidity
17772;BME280;9010;32.624;-96.938;2022-11-04T00:02:05;98836.97;;;24.40;100.00
17772;BME280;9010;32.624;-96.938;2022-11-04T00:04:35;98851.25;;;24.40;100.00
17772;BME280;9010;32.624;-96.938;2022-11-04T00:07:03;98836.69;;;24.27;100.00
17772;BME280;9010;32.624;-96.938;2022-11-04T00:09:52;98853.72;;;24.19;100.00
17772;BME280;9010;32.624;-96.938;2022-11-04T00:12:20;98852.22;;;24.17;100.00
17772;BME280;9010;32.624;-96.938;2022-11-04T00:14:50;98849.25;;;24.03;100.00
17772;BME280;9010;32.624;-96.938;2022-11-04T00:17:18;98849.94;;;23.97;100.00
17772;BME280;9010;32.624;-96.938;2022-11-04T00:19:49;98851.44;;;24.00;100.00
17772;BME280;9010;32.624;-96.938;2022-11-04T00:22:35;98850.63;;;23.91;100.00
17772;BME280;9010;32.624;-96.938;2022-11-04T00:25:21;98858.50;;;23.93;100.00
17772;BME280;9010;32.624;-96.938;2022-11-04T00:28:20;98855.00;;;23.92;100.00
17772;BME280;9010;32.624;-96.938;2022-11-04T00:31:06;98853.81;;;23.95;100.00
17772;BME280;9010;32.624;-96.938;2022-11-04T00:33:49;98856.63;;;24.01;100.00
17772;BME280;9010;32.624;-96.938;2022-11-04T00:36:20;98855.59;;;24.11;100.00
17772;BME280;9010;32.624;-96.938;2022-11-04T00:38:50;98860.44;;;24.07;100.00
17772;BME280;9010;32.624;-96.938;2022-11-04T00:41:18;98852.09;;;24.02;100.00
17772;BME280;9010;32.624;-96.938;2022-11-04T00:43:52;98857.31;;;23.95;100.00
17772;BME280;9010;32.624;-96.938;2022-11-04T00:46:21;98844.75;;;23.88;100.00
17772;BME280;9010;32.624;-96.938;2022-11-04T00:48:49;98856.34;;;23.88;100.00
17772;BME280;9010;32.624;-96.938;2022-11-04T00:51:19;98850.66;;;23.83;100.00
17772;BME280;9010;32.624;-96.938;2022-11-04T00:53:47;98859.19;;;23.87;100.00
17772;BME280;9010;32.624;-96.938;2022-11-04T00:56:16;98863.06;;;23.92;100.00
17772;BME280;9010;32.624;-96.938;2022-11-04T00:58:44;98849.63;;;23.84;100.00
17772;BME280;9010;32.624;-96.938;2022-11-04T01:01:13;98852.84;;;23.80;100.00
17772;BME280;9010;32.624;-96.938;2022-11-04T01:03:43;98851.00;;;23.80;100.00
17772;BME280;9010;32.624;-96.938;2022-11-04T01:06:11;98854.66;;;23.87;100.00
17772;BME280;9010;32.624;-96.938;2022-11-04T01:08:41;98858.53;;;23.85;100.00
17772;BME280;9010;32.624;-96.938;2022-11-04T01:11:10;98858.22;;;23.80;100.00
17772;BME280;9010;32.624;-96.938;2022-11-04T01:13:38;98855.69;;;23.78;100.00
17772;BME280;9010;32.624;-96.938;2022-11-04T01:16:08;98855.06;;;23.68;100.00
17772;BME280;9010;32.624;-96.938;2022-11-04T01:18:38;98853.72;;;23.64;100.00
17772;BME280;9010;32.624;-96.938;2022-11-04T01:21:09;98864.47;;;23.64;100.00
17772;BME280;9010;32.624;-96.938;2022-11-04T01:23:38;98865.19;;;23.58;100.00
17772;BME280;9010;32.624;-96.938;2022-11-04T01:26:09;98862.84;;;23.47;100.00
17772;BME280;9010;32.624;-96.938;2022-11-04T01:28:38;98862.50;;;23.34;100.00
17772;BME280;9010;32.624;-96.938;2022-11-04T01:31:07;98870.22;;;23.29;100.00
17772;BME280;9010;32.624;-96.938;2022-11-04T01:33:36;98880.28;;;23.35;100.00
17772;BME280;9010;32.624;-96.938;2022-11-04T01:36:05;98875.28;;;23.40;100.00
17772;BME280;9010;32.624;-96.938;2022-11-04T01:38:34;98873.06;;;23.52;100.00
17772;BME280;9010;32.624;-96.938;2022-11-04T01:41:03;98866.19;;;23.49;100.00
17772;BME280;9010;32.624;-96.938;2022-11-04T01:43:45;98875.91;;;23.58;100.00
17772;BME280;9010;32.624;-96.938;2022-11-04T01:46:23;98869.84;;;23.56;100.00
17772;BME280;9010;32.624;-96.938;2022-11-04T01:48:56;98876.41;;;23.54;100.00
17772;BME280;9010;32.624;-96.938;2022-11-04T01:51:26;98869.84;;;23.64;100.00
17772;BME280;9010;32.624;-96.938;2022-11-04T01:53:56;98871.88;;;23.62;100.00
17772;BME280;9010;32.624;-96.938;2022-11-04T01:56:25;98869.50;;;23.67;100.00
17772;BME280;9010;32.624;-96.938;2022-11-04T01:58:58;98867.00;;;23.66;100.00
17772;BME280;9010;32.624;-96.938;2022-11-04T02:01:29;98872.19;;;23.75;100.00
17772;BME280;9010;32.624;-96.938;2022-11-04T02:03:58;98868.81;;;23.73;100.00
17772;BME280;9010;32.624;-96.938;2022-11-04T02:06:48;98868.53;;;23.60;100.00
17772;BME280;9010;32.624;-96.938;2022-11-04T02:09:18;98869.38;;;23.61;100.00
17772;BME280;9010;32.624;-96.938;2022-11-04T02:11:47;98864.00;;;23.61;100.00
17772;BME280;9010;32.624;-96.938;2022-11-04T02:14:35;98872.22;;;23.59;100.00
17772;BME280;9010;32.624;-96.938;2022-11-04T02:17:16;98872.72;;;23.63;100.00
17772;BME280;9010;32.624;-96.938;2022-11-04T02:19:59;98872.72;;;23.63;100.00
17772;BME280;9010;32.624;-96.938;2022-11-04T02:23:04;98872.53;;;23.64;100.00
17772;BME280;9010;32.624;-96.938;2022-11-04T02:25:59;98863.16;;;23.60;100.00
17772;BME280;9010;32.624;-96.938;2022-11-04T02:29:05;98862.50;;;23.58;100.00
17772;BME280;9010;32.624;-96.938;2022-11-04T02:31:40;98863.50;;;23.57;100.00
17772;BME280;9010;32.624;-96.938;2022-11-04T02:34:15;98858.81;;;23.51;100.00
17772;BME280;9010;32.624;-96.938;2022-11-04T02:36:49;98865.34;;;23.57;100.00
17772;BME280;9010;32.624;-96.938;2022-11-04T02:39:32;98870.19;;;23.53;100.00
17772;BME280;9010;32.624;-96.938;2022-11-04T02:42:10;98863.34;;;23.51;100.00
17772;BME280;9010;32.624;-96.938;2022-11-04T02:44:43;98851.75;;;23.34;100.00
17772;BME280;9010;32.624;-96.938;2022-11-04T02:47:15;98857.13;;;23.34;100.00
17772;BME280;9010;32.624;-96.938;2022-11-04T02:49:49;98859.16;;;23.32;100.00
17772;BME280;9010;32.624;-96.938;2022-11-04T02:52:22;98854.44;;;23.34;100.00
17772;BME280;9010;32.624;-96.938;2022-11-04T02:54:58;98852.75;;;23.33;100.00
17772;BME280;9010;32.624;-96.938;2022-11-04T02:57:29;98851.28;;;23.22;100.00
17772;BME280;9010;32.624;-96.938;2022-11-04T03:00:03;98847.06;;;23.28;100.00
17772;BME280;9010;32.624;-96.938;2022-11-04T03:02:34;98846.91;;;23.29;100.00
17772;BME280;9010;32.624;-96.938;2022-11-04T03:05:05;98840.06;;;23.27;100.00
17772;BME280;9010;32.624;-96.938;2022-11-04T03:07:37;98836.69;;;23.25;100.00
17772;BME280;9010;32.624;-96.938;2022-11-04T03:10:11;98846.44;;;23.18;100.00
17772;BME280;9010;32.624;-96.938;2022-11-04T03:12:45;98845.25;;;23.20;100.00
17772;BME280;9010;32.624;-96.938;2022-11-04T03:15:19;98837.03;;;23.22;100.00
17772;BME280;9010;32.624;-96.938;2022-11-04T03:17:55;98835.38;;;23.21;100.00
17772;BME280;9010;32.624;-96.938;2022-11-04T03:20:25;98837.72;;;23.16;100.00
17772;BME280;9010;32.624;-96.938;2022-11-04T03:22:55;98830.50;;;23.16;100.00
17772;BME280;9010;32.624;-96.938;2022-11-04T03:25:27;98828.31;;;23.20;100.00
17772;BME280;9010;32.624;-96.938;2022-11-04T03:28:02;98831.84;;;23.20;100.00
17772;BME280;9010;32.624;-96.938;2022-11-04T03:30:38;98834.69;;;23.11;100.00
17772;BME280;9010;32.624;-96.938;2022-11-04T03:33:16;98825.97;;;23.09;100.00
17772;BME280;9010;32.624;-96.938;2022-11-04T03:35:46;98824.97;;;23.02;100.00
17772;BME280;9010;32.624;-96.938;2022-11-04T03:38:14;98832.03;;;23.03;100.00
17772;BME280;9010;32.624;-96.938;2022-11-04T03:40:43;98829.34;;;23.03;100.00
17772;BME280;9010;32.624;-96.938;2022-11-04T03:43:13;98837.38;;;23.11;100.00
17772;BME280;9010;32.624;-96.938;2022-11-04T03:45:44;98831.00;;;23.12;100.00
17772;BME280;9010;32.624;-96.938;2022-11-04T03:48:13;98832.00;;;23.11;100.00
17772;BME280;9010;32.624;-96.938;2022-11-04T03:50:43;98825.66;;;23.12;100.00
17772;BME280;9010;32.624;-96.938;2022-11-04T03:53:14;98830.00;;;23.05;100.00
17772;BME280;9010;32.624;-96.938;2022-11-04T03:55:53;98832.69;;;23.13;100.00
17772;BME280;9010;32.624;-96.938;2022-11-04T03:58:33;98834.34;;;23.14;100.00
17772;BME280;9010;32.624;-96.938;2022-11-04T04:01:16;98841.75;;;23.12;100.00
17772;BME280;9010;32.624;-96.938;2022-11-04T04:03:56;98832.84;;;23.19;100.00
17772;BME280;9010;32.624;-96.938;2022-11-04T04:06:29;98835.03;;;23.24;100.00
17772;BME280;9010;32.624;-96.938;2022-11-04T04:09:04;98831.34;;;23.17;100.00
17772;BME280;9010;32.624;-96.938;2022-11-04T04:11:40;98830.00;;;23.21;100.00
17772;BME280;9010;32.624;-96.938;2022-11-04T04:14:14;98830.84;;;23.21;100.00
17772;BME280;9010;32.624;-96.938;2022-11-04T04:17:08;98826.13;;;23.23;100.00
17772;BME280;9010;32.624;-96.938;2022-11-04T04:19:41;98824.44;;;23.22;100.00
17772;BME280;9010;32.624;-96.938;2022-11-04T04:22:14;98827.81;;;23.24;100.00
17772;BME280;9010;32.624;-96.938;2022-11-04T04:24:47;98824.94;;;23.26;100.00
17772;BME280;9010;32.624;-96.938;2022-11-04T04:27:34;98823.78;;;23.20;100.00
17772;BME280;9010;32.624;-96.938;2022-11-04T04:30:05;98806.53;;;23.15;100.00
17772;BME280;9010;32.624;-96.938;2022-11-04T04:32:38;98823.25;;;23.25;100.00
17772;BME280;9010;32.624;-96.938;2022-11-04T04:35:09;98815.22;;;23.25;100.00
17772;BME280;9010;32.624;-96.938;2022-11-04T04:37:57;98820.25;;;23.28;100.00
17772;BME280;9010;32.624;-96.938;2022-11-04T04:40:50;98808.00;;;23.33;100.00
17772;BME280;9010;32.624;-96.938;2022-11-04T04:43:38;98805.84;;;23.29;100.00
17772;BME280;9010;32.624;-96.938;2022-11-04T04:46:26;98809.16;;;23.31;100.00
17772;BME280;9010;32.624;-96.938;2022-11-04T04:49:03;98807.00;;;23.26;100.00
17772;BME280;9010;32.624;-96.938;2022-11-04T04:51:31;98802.16;;;23.30;100.00
17772;BME280;9010;32.624;-96.938;2022-11-04T04:54:00;98805.50;;;23.32;100.00
17772;BME280;9010;32.624;-96.938;2022-11-04T04:56:28;98805.50;;;23.32;100.00
17772;BME280;9010;32.624;-96.938;2022-11-04T04:58:57;98814.84;;;23.36;100.00
17772;BME280;9010;32.624;-96.938;2022-11-04T05:01:25;98801.44;;;23.36;100.00
17772;BME280;9010;32.624;-96.938;2022-11-04T05:03:53;98803.47;;;23.34;100.00
17772;BME280;9010;32.624;-96.938;2022-11-04T05:06:23;98806.69;;;23.29;100.00
17772;BME280;9010;32.624;-96.938;2022-11-04T05:08:51;98809.34;;;23.37;100.00
17772;BME280;9010;32.624;-96.938;2022-11-04T05:11:19;98811.84;;;23.31;100.00
17772;BME280;9010;32.624;-96.938;2022-11-04T05:13:47;98817.88;;;23.33;100.00
17772;BME280;9010;32.624;-96.938;2022-11-04T05:16:16;98815.72;;;23.28;100.00
17772;BME280;9010;32.624;-96.938;2022-11-04T05:18:44;98812.03;;;23.29;100.00
17772;BME280;9010;32.624;-96.938;2022-11-04T05:21:14;98811.00;;;23.30;100.00
17772;BME280;9010;32.624;-96.938;2022-11-04T05:23:44;98813.22;;;23.27;100.00
17772;BME280;9010;32.624;-96.938;2022-11-04T05:26:12;98819.59;;;23.26;100.00
17772;BME280;9010;32.624;-96.938;2022-11-04T05:28:41;98816.06;;;23.25;100.00
17772;BME280;9010;32.624;-96.938;2022-11-04T05:31:09;98808.88;;;23.18;100.00
17772;BME280;9010;32.624;-96.938;2022-11-04T05:33:37;98806.53;;;23.15;100.00
17772;BME280;9010;32.624;-96.938;2022-11-04T05:36:06;98820.28;;;23.12;100.00
17772;BME280;9010;32.624;-96.938;2022-11-04T05:38:35;98818.13;;;23.07;100.00
17772;BME280;9010;32.624;-96.938;2022-11-04T05:41:07;98822.31;;;23.10;100.00
17772;BME280;9010;32.624;-96.938;2022-11-04T05:43:36;98815.59;;;23.06;100.00
17772;BME280;9010;32.624;-96.938;2022-11-04T05:46:04;98819.78;;;23.08;100.00
17772;BME280;9010;32.624;-96.938;2022-11-04T05:48:32;98814.25;;;23.02;100.00
17772;BME280;9010;32.624;-96.938;2022-11-04T05:51:01;98810.25;;;22.98;100.00
17772;BME280;9010;32.624;-96.938;2022-11-04T05:53:29;98811.41;;;22.95;100.00
17772;BME280;9010;32.624;-96.938;2022-11-04T05:55:57;98815.75;;;22.96;100.00
17772;BME280;9010;32.624;-96.938;2022-11-04T05:58:27;98813.94;;;22.88;100.00
17772;BME280;9010;32.624;-96.938;2022-11-04T06:01:10;98805.53;;;22.92;100.00
17772;BME280;9010;32.624;-96.938;2022-11-04T06:03:38;98798.19;;;22.85;100.00
17772;BME280;9010;32.624;-96.938;2022-11-04T06:06:07;98805.22;;;22.86;100.00
17772;BME280;9010;32.624;-96.938;2022-11-04T06:08:35;98812.25;;;22.87;100.00
17772;BME280;9010;32.624;-96.938;2022-11-04T06:11:03;98807.06;;;22.86;100.00
17772;BME280;9010;32.624;-96.938;2022-11-04T06:13:33;98801.88;;;22.84;100.00
17772;BME280;9010;32.624;-96.938;2022-11-04T06:16:01;98803.88;;;22.82;100.00
17772;BME280;9010;32.624;-96.938;2022-11-04T06:18:29;98800.72;;;22.87;100.00
17772;BME280;9010;32.624;-96.938;2022-11-04T06:21:09;98792.81;;;22.85;100.00
17772;BME280;9010;32.624;-96.938;2022-11-04T06:23:38;98798.69;;;22.89;100.00
17772;BME280;9010;32.624;-96.938;2022-11-04T06:26:06;98795.50;;;22.85;100.00
17772;BME280;9010;32.624;-96.938;2022-11-04T06:28:37;98787.44;;;22.85;100.00
17772;BME280;9010;32.624;-96.938;2022-11-04T06:31:07;98791.16;;;22.84;100.00
17772;BME280;9010;32.624;-96.938;2022-11-04T06:33:37;98773.19;;;22.85;100.00
17772;BME280;9010;32.624;-96.938;2022-11-04T06:36:06;98774.22;;;22.84;100.00
17772;BME280;9010;32.624;-96.938;2022-11-04T06:38:35;98780.91;;;22.88;100.00
17772;BME280;9010;32.624;-96.938;2022-11-04T06:41:05;98771.03;;;22.88;100.00
17772;BME280;9010;32.624;-96.938;2022-11-04T06:43:33;98772.22;;;22.86;100.00
17772;BME280;9010;32.624;-96.938;2022-11-04T06:46:04;98765.16;;;22.85;100.00
17772;BME280;9010;32.624;-96.938;2022-11-04T06:48:32;98771.88;;;22.89;100.00
17772;BME280;9010;32.624;-96.938;2022-11-04T06:51:00;98785.44;;;22.87;100.00
17772;BME280;9010;32.624;-96.938;2022-11-04T06:53:28;98778.41;;;22.86;100.00
17772;BME280;9010;32.624;-96.938;2022-11-04T06:56:02;98777.22;;;22.89;100.00
17772;BME280;9010;32.624;-96.938;2022-11-04T07:01:54;98778.41;;;22.95;100.00
17772;BME280;9010;32.624;-96.938;2022-11-04T07:04:22;98770.34;;;22.95;100.00
17772;BME280;9010;32.624;-96.938;2022-11-04T07:06:51;98782.59;;;22.97;100.00
17772;BME280;9010;32.624;-96.938;2022-11-04T07:09:19;98790.28;;;23.00;100.00
17772;BME280;9010;32.624;-96.938;2022-11-04T07:11:47;98784.09;;;23.00;100.00
17772;BME280;9010;32.624;-96.938;2022-11-04T07:14:15;98788.13;;;23.04;100.00
17772;BME280;9010;32.624;-96.938;2022-11-04T07:16:43;98786.63;;;23.01;100.00
17772;BME280;9010;32.624;-96.938;2022-11-04T07:19:13;98786.09;;;22.98;100.00
17772;BME280;9010;32.624;-96.938;2022-11-04T07:21:41;98787.41;;;23.02;100.00
17772;BME280;9010;32.624;-96.938;2022-11-04T07:24:10;98787.94;;;23.05;100.00
17772;BME280;9010;32.624;-96.938;2022-11-04T07:26:38;98777.06;;;22.99;100.00
17772;BME280;9010;32.624;-96.938;2022-11-04T07:29:08;98766.81;;;23.02;100.00
17772;BME280;9010;32.624;-96.938;2022-11-04T07:31:36;98775.34;;;23.06;100.00
17772;BME280;9010;32.624;-96.938;2022-11-04T07:34:04;98773.34;;;23.08;100.00
17772;BME280;9010;32.624;-96.938;2022-11-04T07:36:34;98767.31;;;23.06;100.00
17772;BME280;9010;32.624;-96.938;2022-11-04T07:39:03;98764.97;;;23.03;100.00
17772;BME280;9010;32.624;-96.938;2022-11-04T07:41:32;98766.81;;;23.02;100.00
17772;BME280;9010;32.624;-96.938;2022-11-04T07:44:00;98758.63;;;23.04;100.00
17772;BME280;9010;32.624;-96.938;2022-11-04T07:46:31;98753.94;;;22.98;100.00
17772;BME280;9010;32.624;-96.938;2022-11-04T07:48:59;98750.25;;;22.99;100.00
17772;BME280;9010;32.624;-96.938;2022-11-04T07:51:28;98747.38;;;23.00;100.00
17772;BME280;9010;32.624;-96.938;2022-11-04T07:53:59;98748.22;;;23.01;100.00
17772;BME280;9010;32.624;-96.938;2022-11-04T07:56:27;98736.47;;;23.02;100.00
17772;BME280;9010;32.624;-96.938;2022-11-04T07:58:55;98734.16;;;22.90;100.00
17772;BME280;9010;32.624;-96.938;2022-11-04T08:01:24;98739.69;;;22.89;100.00
17772;BME280;9010;32.624;-96.938;2022-11-04T08:03:52;98726.78;;;22.93;100.00
17772;BME280;9010;32.624;-96.938;2022-11-04T08:06:20;98725.75;;;22.94;100.00
17772;BME280;9010;32.624;-96.938;2022-11-04T08:08:49;98716.75;;;22.86;100.00
17772;BME280;9010;32.624;-96.938;2022-11-04T08:11:22;98713.53;;;22.91;100.00
17772;BME280;9010;32.624;-96.938;2022-11-04T08:13:54;98713.41;;;22.84;100.00
17772;BME280;9010;32.624;-96.938;2022-11-04T08:16:23;98708.19;;;22.83;100.00
17772;BME280;9010;32.624;-96.938;2022-11-04T08:18:52;98705.53;;;22.75;100.00
17772;BME280;9010;32.624;-96.938;2022-11-04T08:21:20;98695.34;;;22.70;100.00
17772;BME280;9010;32.624;-96.938;2022-11-04T08:23:49;98701.16;;;22.74;100.00
17772;BME280;9010;32.624;-96.938;2022-11-04T08:26:19;98687.63;;;22.67;100.00
17772;BME280;9010;32.624;-96.938;2022-11-04T08:28:49;98685.28;;;22.64;100.00
17772;BME280;9010;32.624;-96.938;2022-11-04T08:31:19;98691.47;;;22.65;100.00
17772;BME280;9010;32.624;-96.938;2022-11-04T08:33:49;98689.94;;;22.62;100.00
17772;BME280;9010;32.624;-96.938;2022-11-04T08:36:19;98681.22;;;22.60;100.00
17772;BME280;9010;32.624;-96.938;2022-11-04T08:38:47;98682.72;;;22.63;100.00
17772;BME280;9010;32.624;-96.938;2022-11-04T08:41:21;98685.28;;;22.64;100.00
17772;BME280;9010;32.624;-96.938;2022-11-04T08:43:50;98686.25;;;22.63;100.00
17772;BME280;9010;32.624;-96.938;2022-11-04T08:46:18;98689.94;;;22.62;100.00
17772;BME280;9010;32.624;-96.938;2022-11-04T08:48:47;98693.63;;;22.61;100.00
17772;BME280;9010;32.624;-96.938;2022-11-04T08:51:18;98697.16;;;22.62;100.00
17772;BME280;9010;32.624;-96.938;2022-11-04T08:53:47;98689.78;;;22.56;100.00
17772;BME280;9010;32.624;-96.938;2022-11-04T08:56:17;98689.28;;;22.60;100.00
17772;BME280;9010;32.624;-96.938;2022-11-04T08:58:48;98689.47;;;22.59;100.00
17772;BME280;9010;32.624;-96.938;2022-11-04T09:01:16;98683.06;;;22.60;100.00
17772;BME280;9010;32.624;-96.938;2022-11-04T09:03:46;98681.56;;;22.57;100.00
17772;BME280;9010;32.624;-96.938;2022-11-04T09:06:15;98673.88;;;22.54;100.00
17772;BME280;9010;32.624;-96.938;2022-11-04T09:08:48;98680.59;;;22.50;100.00
17772;BME280;9010;32.624;-96.938;2022-11-04T09:11:17;98675.91;;;22.44;100.00
17772;BME280;9010;32.624;-96.938;2022-11-04T09:13:47;98676.56;;;22.46;100.00
17772;BME280;9010;32.624;-96.938;2022-11-04T09:16:15;98681.41;;;22.43;100.00
17772;BME280;9010;32.624;-96.938;2022-11-04T09:18:44;98670.19;;;22.31;100.00
17772;BME280;9010;32.624;-96.938;2022-11-04T09:21:12;98665.84;;;22.38;100.00
17772;BME280;9010;32.624;-96.938;2022-11-04T09:23:40;98667.53;;;22.39;100.00
17772;BME280;9010;32.624;-96.938;2022-11-04T09:26:11;98667.69;;;22.38;100.00
17772;BME280;9010;32.624;-96.938;2022-11-04T09:28:41;98670.88;;;22.41;100.00
17772;BME280;9010;32.624;-96.938;2022-11-04T09:31:13;98668.88;;;22.35;100.00
17772;BME280;9010;32.624;-96.938;2022-11-04T09:33:42;98669.22;;;22.32;100.00
17772;BME280;9010;32.624;-96.938;2022-11-04T09:36:11;98671.56;;;22.35;100.00
17772;BME280;9010;32.624;-96.938;2022-11-04T09:38:40;98670.88;;;22.41;100.00
17772;BME280;9010;32.624;-96.938;2022-11-04T09:44:19;98665.34;;;22.26;100.00
17772;BME280;9010;32.624;-96.938;2022-11-04T09:46:52;98664.03;;;22.30;100.00
17772;BME280;9010;32.624;-96.938;2022-11-04T09:49:22;98662.34;;;22.29;100.00
17772;BME280;9010;32.624;-96.938;2022-11-04T09:51:53;98670.72;;;22.34;100.00
17772;BME280;9010;32.624;-96.938;2022-11-04T09:54:26;98662.69;;;22.26;100.00
17772;BME280;9010;32.624;-96.938;2022-11-04T09:56:58;98667.53;;;22.31;100.00
17772;BME280;9010;32.624;-96.938;2022-11-04T09:59:31;98661.81;;;22.34;100.00
17772;BME280;9010;32.624;-96.938;2022-11-04T10:02:17;98650.13;;;22.35;100.00
17772;BME280;9010;32.624;-96.938;2022-11-04T10:04:59;98658.81;;;22.37;100.00
17772;BME280;9010;32.624;-96.938;2022-11-04T10:07:43;98645.28;;;22.39;100.00
17772;BME280;9010;32.624;-96.938;2022-11-04T10:10:19;98640.75;;;22.39;100.00
17772;BME280;9010;32.624;-96.938;2022-11-04T10:13:01;98644.09;;;22.41;100.00
17772;BME280;9010;32.624;-96.938;2022-11-04T10:15:46;98643.25;;;22.41;100.00
17772;BME280;9010;32.624;-96.938;2022-11-04T10:18:34;98645.75;;;22.42;100.00
17772;BME280;9010;32.624;-96.938;2022-11-04T10:21:17;98642.09;;;22.35;100.00
17772;BME280;9010;32.624;-96.938;2022-11-04T10:24:00;98631.53;;;22.33;100.00
17772;BME280;9010;32.624;-96.938;2022-11-04T10:26:40;98632.34;;;22.34;100.00
17772;BME280;9010;32.624;-96.938;2022-11-04T10:29:13;98631.69;;;22.40;100.00
17772;BME280;9010;32.624;-96.938;2022-11-04T10:31:44;98626.00;;;22.43;100.00
17772;BME280;9010;32.624;-96.938;2022-11-04T10:34:25;98629.66;;;22.42;100.00
17772;BME280;9010;32.624;-96.938;2022-11-04T10:36:56;98612.63;;;22.35;100.00
17772;BME280;9010;32.624;-96.938;2022-11-04T10:39:29;98614.97;;;22.38;100.00
17772;BME280;9010;32.624;-96.938;2022-11-04T10:41:59;98619.31;;;22.39;100.00
17772;BME280;9010;32.624;-96.938;2022-11-04T10:44:31;98620.63;;;22.43;100.00
17772;BME280;9010;32.624;-96.938;2022-11-04T10:47:17;98610.91;;;22.42;100.00
17772;BME280;9010;32.624;-96.938;2022-11-04T10:50:13;98620.81;;;22.50;100.00
17772;BME280;9010;32.624;-96.938;2022-11-04T10:52:42;98618.78;;;22.52;100.00
17772;BME280;9010;32.624;-96.938;2022-11-04T10:55:17;98614.25;;;22.52;100.00
17772;BME280;9010;32.624;-96.938;2022-11-04T10:57:54;98609.44;;;22.48;100.00
17772;BME280;9010;32.624;-96.938;2022-11-04T11:00:36;98606.75;;;22.48;100.00
17772;BME280;9010;32.624;-96.938;2022-11-04T11:03:23;98607.22;;;22.51;100.00
17772;BME280;9010;32.624;-96.938;2022-11-04T11:06:09;98608.25;;;22.50;100.00
17772;BME280;9010;32.624;-96.938;2022-11-04T11:08:38;98614.25;;;22.52;100.00
17772;BME280;9010;32.624;-96.938;2022-11-04T11:11:07;98610.09;;;22.50;100.00
17772;BME280;9010;32.624;-96.938;2022-11-04T11:13:37;98623.47;;;22.50;100.00
17772;BME280;9010;32.624;-96.938;2022-11-04T11:16:09;98621.31;;;22.53;100.00
17772;BME280;9010;32.624;-96.938;2022-11-04T11:18:39;98614.59;;;22.49;100.00
17772;BME280;9010;32.624;-96.938;2022-11-04T11:21:11;98617.25;;;22.57;100.00
17772;BME280;9010;32.624;-96.938;2022-11-04T11:23:42;98599.50;;;22.56;100.00
17772;BME280;9010;32.624;-96.938;2022-11-04T11:26:13;98606.03;;;22.54;100.00
17772;BME280;9010;32.624;-96.938;2022-11-04T11:28:49;98607.72;;;22.55;100.00
17772;BME280;9010;32.624;-96.938;2022-11-04T11:31:18;98595.81;;;22.57;100.00
17772;BME280;9010;32.624;-96.938;2022-11-04T11:33:54;98596.81;;;22.56;100.00
17772;BME280;9010;32.624;-96.938;2022-11-04T11:36:27;98593.63;;;22.61;100.00
17772;BME280;9010;32.624;-96.938;2022-11-04T11:39:03;98592.13;;;22.58;100.00
17772;BME280;9010;32.624;-96.938;2022-11-04T11:41:33;98596.00;;;22.56;100.00
17772;BME280;9010;32.624;-96.938;2022-11-04T11:44:05;98593.78;;;22.59;100.00
17772;BME280;9010;32.624;-96.938;2022-11-04T11:46:36;98581.44;;;22.50;100.00
17772;BME280;9010;32.624;-96.938;2022-11-04T11:49:23;98592.31;;;22.49;100.00
17772;BME280;9010;32.624;-96.938;2022-11-04T11:51:55;98597.00;;;22.55;100.00
17772;BME280;9010;32.624;-96.938;2022-11-04T11:54:44;98586.78;;;22.58;100.00
17772;BME280;9010;32.624;-96.938;2022-11-04T11:57:27;98577.25;;;22.56;100.00
17772;BME280;9010;32.624;-96.938;2022-11-04T12:00:00;98582.25;;;22.59;100.00
17772;BME280;9010;32.624;-96.938;2022-11-04T12:02:38;98579.06;;;22.63;100.00
17772;BME280;9010;32.624;-96.938;2022-11-04T12:05:10;98576.56;;;22.62;100.00
17772;BME280;9010;32.624;-96.938;2022-11-04T12:07:46;98575.22;;;22.58;100.00
17772;BME280;9010;32.624;-96.938;2022-11-04T12:10:23;98577.25;;;22.56;100.00
17772;BME280;9010;32.624;-96.938;2022-11-04T12:13:04;98586.09;;;22.56;100.00
17772;BME280;9010;32.624;-96.938;2022-11-04T12:15:53;98582.75;;;22.54;100.00
17772;BME280;9010;32.624;-96.938;2022-11-04T12:18:46;98576.75;;;22.52;100.00
17772;BME280;9010;32.624;-96.938;2022-11-04T12:21:23;98567.72;;;22.53;100.00
17772;BME280;9010;32.624;-96.938;2022-11-04T12:24:05;98562.34;;;22.53;100.00
17772;BME280;9010;32.624;-96.938;2022-11-04T12:26:45;98556.00;;;22.46;100.00
17772;BME280;9010;32.624;-96.938;2022-11-04T12:29:28;98563.03;;;22.47;100.00
17772;BME280;9010;32.624;-96.938;2022-11-04T12:32:06;98557.69;;;22.47;100.00
17772;BME280;9010;32.624;-96.938;2022-11-04T12:34:52;98548.94;;;22.45;100.00
17772;BME280;9010;32.624;-96.938;2022-11-04T12:37:30;98531.56;;;22.41;100.00
17772;BME280;9010;32.624;-96.938;2022-11-04T12:40:13;98532.25;;;22.35;100.00
17772;BME280;9010;32.624;-96.938;2022-11-04T12:42:56;98533.59;;;22.39;100.00
17772;BME280;9010;32.624;-96.938;2022-11-04T12:45:40;98523.88;;;22.38;100.00
17772;BME280;9010;32.624;-96.938;2022-11-04T12:48:15;98533.91;;;22.44;100.00
17772;BME280;9010;32.624;-96.938;2022-11-04T12:50:55;98532.22;;;22.43;100.00
17772;BME280;9010;32.624;-96.938;2022-11-04T12:56:35;98524.53;;;22.40;100.00
17772;BME280;9010;32.624;-96.938;2022-11-04T13:02:00;98535.25;;;22.40;100.00
17772;BME280;9010;32.624;-96.938;2022-11-04T13:04:34;98527.53;;;22.37;100.00
17772;BME280;9010;32.624;-96.938;2022-11-04T13:07:10;98536.28;;;22.39;100.00
17772;BME280;9010;32.624;-96.938;2022-11-04T13:09:45;98538.56;;;22.42;100.00
17772;BME280;9010;32.624;-96.938;2022-11-04T13:12:20;98541.94;;;22.44;100.00
17772;BME280;9010;32.624;-96.938;2022-11-04T13:14:52;98543.25;;;22.48;100.00
17772;BME280;9010;32.624;-96.938;2022-11-04T13:17:25;98544.09;;;22.49;100.00
17772;BME280;9010;32.624;-96.938;2022-11-04T13:19:59;98545.91;;;22.56;100.00
17772;BME280;9010;32.624;-96.938;2022-11-04T13:22:31;98560.31;;;22.55;100.00
17772;BME280;9010;32.624;-96.938;2022-11-04T13:25:03;98558.31;;;22.57;100.00